sensor_id;sensor_type;location;lat;lon;timestamp;P1;durP1;ratioP1;P2;durP2;ratioP2
8474;SDS011;4274;52.012;8.448;2024-01-15T00:01:28;57.90;;;13.90;;
8474;SDS011;4274;52.012;8.448;2024-01-15T00:03:54;59.47;;;14.50;;
8474;SDS011;4274;52.012;8.448;2024-01-15T00:06:20;64.03;;;16.37;;
8474;SDS011;4274;52.012;8.448;2024-01-15T00:08:45;58.93;;;13.87;;
8474;SDS011;4274;52.012;8.448;2024-01-15T00:11:11;55.43;;;14.50;;
8474;SDS011;4274;52.012;8.448;2024-01-15T00:13:37;60.13;;;15.30;;
8474;SDS011;4274;52.012;8.448;2024-01-15T00:16:03;60.50;;;13.90;;
8474;SDS011;4274;52.012;8.448;2024-01-15T00:18:29;61.50;;;14.10;;
8474;SDS011;4274;52.012;8.448;2024-01-15T00:20:55;56.50;;;13.93;;
8474;SDS011;4274;52.012;8.448;2024-01-15T00:23:21;55.87;;;11.70;;
8474;SDS011;4274;52.012;8.448;2024-01-15T00:25:47;57.93;;;13.57;;
8474;SDS011;4274;52.012;8.448;2024-01-15T00:28:13;57.87;;;13.37;;
8474;SDS011;4274;52.012;8.448;2024-01-15T00:30:38;61.70;;;12.50;;
8474;SDS011;4274;52.012;8.448;2024-01-15T00:33:04;58.70;;;12.67;;
8474;SDS011;4274;52.012;8.448;2024-01-15T00:35:29;59.30;;;12.80;;
8474;SDS011;4274;52.012;8.448;2024-01-15T00:37:55;61.70;;;13.03;;
8474;SDS011;4274;52.012;8.448;2024-01-15T00:40:21;55.87;;;11.70;;
8474;SDS011;4274;52.012;8.448;2024-01-15T00:42:46;54.73;;;11.77;;
8474;SDS011;4274;52.012;8.448;2024-01-15T00:45:12;59.80;;;11.93;;
8474;SDS011;4274;52.012;8.448;2024-01-15T00:47:38;59.93;;;11.47;;
8474;SDS011;4274;52.012;8.448;2024-01-15T00:50:03;52.13;;;10.73;;
8474;SDS011;4274;52.012;8.448;2024-01-15T00:52:29;53.80;;;11.23;;
8474;SDS011;4274;52.012;8.448;2024-01-15T00:54:55;50.10;;;10.27;;
8474;SDS011;4274;52.012;8.448;2024-01-15T00:57:20;50.77;;;10.80;;
8474;SDS011;4274;52.012;8.448;2024-01-15T00:59:46;60.20;;;13.50;;
8474;SDS011;4274;52.012;8.448;2024-01-15T01:02:12;55.70;;;10.70;;
8474;SDS011;4274;52.012;8.448;2024-01-15T01:04:37;56.10;;;9.70;;
8474;SDS011;4274;52.012;8.448;2024-01-15T01:07:03;58.10;;;11.17;;
8474;SDS011;4274;52.012;8.448;2024-01-15T01:09:29;61.27;;;11.90;;
8474;SDS011;4274;52.012;8.448;2024-01-15T01:11:55;48.67;;;9.57;;
8474;SDS011;4274;52.012;8.448;2024-01-15T01:14:21;52.10;;;8.50;;
8474;SDS011;4274;52.012;8.448;2024-01-15T01:16:47;49.53;;;9.00;;
8474;SDS011;4274;52.012;8.448;2024-01-15T01:19:13;47.77;;;8.23;;
8474;SDS011;4274;52.012;8.448;2024-01-15T01:21:38;56.70;;;8.40;;
8474;SDS011;4274;52.012;8.448;2024-01-15T01:24:04;54.70;;;8.67;;
8474;SDS011;4274;52.012;8.448;2024-01-15T01:26:30;51.53;;;8.63;;
8474;SDS011;4274;52.012;8.448;2024-01-15T01:28:56;44.53;;;7.97;;
8474;SDS011;4274;52.012;8.448;2024-01-15T01:31:22;49.10;;;8.27;;
8474;SDS011;4274;52.012;8.448;2024-01-15T01:33:48;47.73;;;8.03;;
8474;SDS011;4274;52.012;8.448;2024-01-15T01:36:14;42.57;;;7.43;;
8474;SDS011;4274;52.012;8.448;2024-01-15T01:38:40;50.50;;;8.87;;
8474;SDS011;4274;52.012;8.448;2024-01-15T01:41:06;53.40;;;8.43;;
8474;SDS011;4274;52.012;8.448;2024-01-15T01:43:32;47.10;;;8.63;;
8474;SDS011;4274;52.012;8.448;2024-01-15T01:45:58;44.17;;;7.70;;
8474;SDS011;4274;52.012;8.448;2024-01-15T01:48:25;46.70;;;8.80;;
8474;SDS011;4274;52.012;8.448;2024-01-15T01:50:52;43.43;;;8.13;;
8474;SDS011;4274;52.012;8.448;2024-01-15T01:53:20;49.50;;;8.60;;
8474;SDS011;4274;52.012;8.448;2024-01-15T01:55:46;48.67;;;8.10;;
8474;SDS011;4274;52.012;8.448;2024-01-15T01:58:13;46.43;;;8.13;;
8474;SDS011;4274;52.012;8.448;2024-01-15T02:00:39;48.93;;;8.83;;
8474;SDS011;4274;52.012;8.448;2024-01-15T02:03:05;51.67;;;7.60;;
8474;SDS011;4274;52.012;8.448;2024-01-15T02:05:31;50.90;;;8.80;;
8474;SDS011;4274;52.012;8.448;2024-01-15T02:07:57;49.17;;;8.90;;
8474;SDS011;4274;52.012;8.448;2024-01-15T02:10:23;52.00;;;9.47;;
8474;SDS011;4274;52.012;8.448;2024-01-15T02:12:48;44.67;;;7.63;;
8474;SDS011;4274;52.012;8.448;2024-01-15T02:15:14;50.37;;;8.53;;
8474;SDS011;4274;52.012;8.448;2024-01-15T02:20:25;48.27;;;8.77;;
8474;SDS011;4274;52.012;8.448;2024-01-15T02:22:51;55.53;;;8.90;;
8474;SDS011;4274;52.012;8.448;2024-01-15T02:25:17;60.80;;;7.93;;
8474;SDS011;4274;52.012;8.448;2024-01-15T02:27:43;53.40;;;9.03;;
8474;SDS011;4274;52.012;8.448;2024-01-15T02:30:12;52.17;;;8.40;;
8474;SDS011;4274;52.012;8.448;2024-01-15T02:32:38;47.33;;;8.97;;
8474;SDS011;4274;52.012;8.448;2024-01-15T02:35:04;49.17;;;9.60;;
8474;SDS011;4274;52.012;8.448;2024-01-15T02:37:30;51.03;;;9.33;;
8474;SDS011;4274;52.012;8.448;2024-01-15T02:39:55;51.23;;;8.13;;
8474;SDS011;4274;52.012;8.448;2024-01-15T02:42:21;55.20;;;8.77;;
8474;SDS011;4274;52.012;8.448;2024-01-15T02:44:47;58.67;;;8.07;;
8474;SDS011;4274;52.012;8.448;2024-01-15T02:47:13;44.97;;;7.90;;
8474;SDS011;4274;52.012;8.448;2024-01-15T02:49:39;49.27;;;6.80;;
8474;SDS011;4274;52.012;8.448;2024-01-15T02:52:05;46.20;;;7.83;;
8474;SDS011;4274;52.012;8.448;2024-01-15T02:54:31;50.67;;;9.00;;
8474;SDS011;4274;52.012;8.448;2024-01-15T02:56:56;47.40;;;8.27;;
8474;SDS011;4274;52.012;8.448;2024-01-15T02:59:22;45.50;;;7.67;;
8474;SDS011;4274;52.012;8.448;2024-01-15T03:01:47;46.20;;;8.23;;
8474;SDS011;4274;52.012;8.448;2024-01-15T03:04:13;48.00;;;7.73;;
8474;SDS011;4274;52.012;8.448;2024-01-15T03:06:38;69.50;;;9.80;;
8474;SDS011;4274;52.012;8.448;2024-01-15T03:09:04;49.80;;;9.07;;
8474;SDS011;4274;52.012;8.448;2024-01-15T03:11:36;52.30;;;9.17;;
8474;SDS011;4274;52.012;8.448;2024-01-15T03:14:03;58.40;;;8.00;;
8474;SDS011;4274;52.012;8.448;2024-01-15T03:16:28;48.00;;;7.70;;
8474;SDS011;4274;52.012;8.448;2024-01-15T03:18:54;46.93;;;8.27;;
8474;SDS011;4274;52.012;8.448;2024-01-15T03:21:19;51.17;;;8.27;;
8474;SDS011;4274;52.012;8.448;2024-01-15T03:23:45;48.63;;;7.83;;
8474;SDS011;4274;52.012;8.448;2024-01-15T03:26:10;46.47;;;7.07;;
8474;SDS011;4274;52.012;8.448;2024-01-15T03:28:36;51.80;;;8.07;;
8474;SDS011;4274;52.012;8.448;2024-01-15T03:31:01;53.47;;;8.43;;
8474;SDS011;4274;52.012;8.448;2024-01-15T03:33:27;53.47;;;8.70;;
8474;SDS011;4274;52.012;8.448;2024-01-15T03:35:53;49.07;;;7.63;;
8474;SDS011;4274;52.012;8.448;2024-01-15T03:38:18;51.17;;;7.83;;
8474;SDS011;4274;52.012;8.448;2024-01-15T03:40:44;54.77;;;8.20;;
8474;SDS011;4274;52.012;8.448;2024-01-15T03:43:09;53.87;;;8.20;;
8474;SDS011;4274;52.012;8.448;2024-01-15T03:45:35;60.27;;;9.03;;
8474;SDS011;4274;52.012;8.448;2024-01-15T03:48:00;50.57;;;7.50;;
8474;SDS011;4274;52.012;8.448;2024-01-15T03:50:26;48.80;;;8.70;;
8474;SDS011;4274;52.012;8.448;2024-01-15T03:52:51;47.40;;;9.10;;
8474;SDS011;4274;52.012;8.448;2024-01-15T03:55:17;53.50;;;8.43;;
8474;SDS011;4274;52.012;8.448;2024-01-15T03:57:42;44.30;;;7.17;;
8474;SDS011;4274;52.012;8.448;2024-01-15T04:00:08;49.07;;;8.37;;
8474;SDS011;4274;52.012;8.448;2024-01-15T04:02:34;45.67;;;8.20;;
8474;SDS011;4274;52.012;8.448;2024-01-15T04:05:00;54.27;;;7.80;;
8474;SDS011;4274;52.012;8.448;2024-01-15T04:07:25;51.90;;;8.30;;
8474;SDS011;4274;52.012;8.448;2024-01-15T04:09:51;55.10;;;8.03;;
8474;SDS011;4274;52.012;8.448;2024-01-15T04:12:17;49.27;;;7.60;;
8474;SDS011;4274;52.012;8.448;2024-01-15T04:14:42;45.30;;;7.67;;
8474;SDS011;4274;52.012;8.448;2024-01-15T04:17:08;57.03;;;8.40;;
8474;SDS011;4274;52.012;8.448;2024-01-15T04:19:33;48.10;;;6.87;;
8474;SDS011;4274;52.012;8.448;2024-01-15T04:21:59;53.00;;;7.03;;
8474;SDS011;4274;52.012;8.448;2024-01-15T04:24:24;50.57;;;7.67;;
8474;SDS011;4274;52.012;8.448;2024-01-15T04:26:50;63.10;;;7.10;;
8474;SDS011;4274;52.012;8.448;2024-01-15T04:29:16;48.10;;;7.60;;
8474;SDS011;4274;52.012;8.448;2024-01-15T04:31:41;52.70;;;7.00;;
8474;SDS011;4274;52.012;8.448;2024-01-15T04:34:07;58.83;;;7.67;;
8474;SDS011;4274;52.012;8.448;2024-01-15T04:36:38;47.07;;;6.60;;
8474;SDS011;4274;52.012;8.448;2024-01-15T04:39:04;52.47;;;7.20;;
8474;SDS011;4274;52.012;8.448;2024-01-15T04:41:29;45.13;;;7.10;;
8474;SDS011;4274;52.012;8.448;2024-01-15T04:43:55;47.00;;;7.80;;
8474;SDS011;4274;52.012;8.448;2024-01-15T04:46:20;53.33;;;7.47;;
8474;SDS011;4274;52.012;8.448;2024-01-15T04:48:46;47.17;;;7.00;;
8474;SDS011;4274;52.012;8.448;2024-01-15T04:51:12;52.73;;;7.30;;
8474;SDS011;4274;52.012;8.448;2024-01-15T04:53:37;47.00;;;7.20;;
8474;SDS011;4274;52.012;8.448;2024-01-15T04:56:03;43.40;;;6.60;;
8474;SDS011;4274;52.012;8.448;2024-01-15T04:58:29;48.80;;;7.60;;
8474;SDS011;4274;52.012;8.448;2024-01-15T05:00:54;60.10;;;9.00;;
8474;SDS011;4274;52.012;8.448;2024-01-15T05:03:20;55.50;;;8.47;;
8474;SDS011;4274;52.012;8.448;2024-01-15T05:05:45;51.70;;;8.10;;
8474;SDS011;4274;52.012;8.448;2024-01-15T05:08:11;44.70;;;8.20;;
8474;SDS011;4274;52.012;8.448;2024-01-15T05:10:37;48.73;;;8.67;;
8474;SDS011;4274;52.012;8.448;2024-01-15T05:13:02;47.00;;;8.77;;
8474;SDS011;4274;52.012;8.448;2024-01-15T05:15:28;53.40;;;8.30;;
8474;SDS011;4274;52.012;8.448;2024-01-15T05:17:54;46.60;;;8.10;;
8474;SDS011;4274;52.012;8.448;2024-01-15T05:20:20;49.70;;;8.20;;
8474;SDS011;4274;52.012;8.448;2024-01-15T05:22:46;50.53;;;7.90;;
8474;SDS011;4274;52.012;8.448;2024-01-15T05:25:11;51.67;;;7.47;;
8474;SDS011;4274;52.012;8.448;2024-01-15T05:27:37;47.73;;;8.43;;
8474;SDS011;4274;52.012;8.448;2024-01-15T05:30:03;51.23;;;7.57;;
8474;SDS011;4274;52.012;8.448;2024-01-15T05:32:29;50.87;;;7.77;;
8474;SDS011;4274;52.012;8.448;2024-01-15T05:34:54;43.87;;;7.50;;
8474;SDS011;4274;52.012;8.448;2024-01-15T05:37:20;46.40;;;7.00;;
8474;SDS011;4274;52.012;8.448;2024-01-15T05:39:45;45.53;;;7.30;;
8474;SDS011;4274;52.012;8.448;2024-01-15T05:42:11;47.00;;;7.83;;
8474;SDS011;4274;52.012;8.448;2024-01-15T05:44:37;42.97;;;7.83;;
8474;SDS011;4274;52.012;8.448;2024-01-15T05:47:03;46.80;;;7.13;;
8474;SDS011;4274;52.012;8.448;2024-01-15T05:49:29;43.07;;;6.73;;
8474;SDS011;4274;52.012;8.448;2024-01-15T05:51:54;43.73;;;7.57;;
8474;SDS011;4274;52.012;8.448;2024-01-15T05:54:20;51.53;;;7.27;;
8474;SDS011;4274;52.012;8.448;2024-01-15T05:56:46;45.87;;;7.97;;
8474;SDS011;4274;52.012;8.448;2024-01-15T05:59:11;48.60;;;7.40;;
8474;SDS011;4274;52.012;8.448;2024-01-15T06:01:37;44.00;;;7.40;;
8474;SDS011;4274;52.012;8.448;2024-01-15T06:04:03;48.30;;;8.40;;
8474;SDS011;4274;52.012;8.448;2024-01-15T06:06:29;40.93;;;6.80;;
8474;SDS011;4274;52.012;8.448;2024-01-15T06:08:54;45.10;;;6.40;;
8474;SDS011;4274;52.012;8.448;2024-01-15T06:11:20;47.67;;;6.90;;
8474;SDS011;4274;52.012;8.448;2024-01-15T06:13:45;43.60;;;7.00;;
8474;SDS011;4274;52.012;8.448;2024-01-15T06:16:12;51.10;;;7.33;;
8474;SDS011;4274;52.012;8.448;2024-01-15T06:18:47;46.63;;;7.70;;
8474;SDS011;4274;52.012;8.448;2024-01-15T06:21:13;46.80;;;8.23;;
8474;SDS011;4274;52.012;8.448;2024-01-15T06:23:39;45.50;;;7.70;;
8474;SDS011;4274;52.012;8.448;2024-01-15T06:26:05;49.20;;;7.70;;
8474;SDS011;4274;52.012;8.448;2024-01-15T06:28:31;51.13;;;8.13;;
8474;SDS011;4274;52.012;8.448;2024-01-15T06:30:57;43.07;;;7.30;;
8474;SDS011;4274;52.012;8.448;2024-01-15T06:33:23;44.03;;;9.13;;
8474;SDS011;4274;52.012;8.448;2024-01-15T06:35:49;49.10;;;7.77;;
8474;SDS011;4274;52.012;8.448;2024-01-15T06:38:15;46.97;;;7.97;;
8474;SDS011;4274;52.012;8.448;2024-01-15T06:40:40;48.07;;;7.17;;
8474;SDS011;4274;52.012;8.448;2024-01-15T06:43:10;50.83;;;7.50;;
8474;SDS011;4274;52.012;8.448;2024-01-15T06:45:36;45.40;;;7.10;;
8474;SDS011;4274;52.012;8.448;2024-01-15T06:48:02;48.23;;;7.00;;
8474;SDS011;4274;52.012;8.448;2024-01-15T06:50:28;51.80;;;9.67;;
8474;SDS011;4274;52.012;8.448;2024-01-15T06:52:53;43.37;;;7.53;;
8474;SDS011;4274;52.012;8.448;2024-01-15T06:55:19;43.83;;;7.30;;
8474;SDS011;4274;52.012;8.448;2024-01-15T06:57:44;52.40;;;7.83;;
8474;SDS011;4274;52.012;8.448;2024-01-15T07:00:10;49.47;;;7.73;;
8474;SDS011;4274;52.012;8.448;2024-01-15T07:02:36;48.17;;;7.27;;
8474;SDS011;4274;52.012;8.448;2024-01-15T07:05:01;41.17;;;6.80;;
8474;SDS011;4274;52.012;8.448;2024-01-15T07:07:30;47.50;;;7.07;;
8474;SDS011;4274;52.012;8.448;2024-01-15T07:09:55;48.73;;;7.20;;
8474;SDS011;4274;52.012;8.448;2024-01-15T07:12:21;52.73;;;6.90;;
8474;SDS011;4274;52.012;8.448;2024-01-15T07:14:47;43.90;;;7.30;;
8474;SDS011;4274;52.012;8.448;2024-01-15T07:17:13;43.23;;;6.60;;
8474;SDS011;4274;52.012;8.448;2024-01-15T07:19:38;46.60;;;8.27;;
8474;SDS011;4274;52.012;8.448;2024-01-15T07:22:04;43.20;;;7.40;;
8474;SDS011;4274;52.012;8.448;2024-01-15T07:24:29;47.63;;;8.80;;
8474;SDS011;4274;52.012;8.448;2024-01-15T07:26:55;46.90;;;7.87;;
8474;SDS011;4274;52.012;8.448;2024-01-15T07:29:20;44.13;;;7.40;;
8474;SDS011;4274;52.012;8.448;2024-01-15T07:31:49;42.03;;;6.90;;
8474;SDS011;4274;52.012;8.448;2024-01-15T07:34:16;47.70;;;7.50;;
8474;SDS011;4274;52.012;8.448;2024-01-15T07:36:45;43.83;;;6.60;;
8474;SDS011;4274;52.012;8.448;2024-01-15T07:39:11;44.73;;;7.33;;
8474;SDS011;4274;52.012;8.448;2024-01-15T07:41:36;43.43;;;6.17;;
8474;SDS011;4274;52.012;8.448;2024-01-15T07:44:02;45.00;;;6.57;;
8474;SDS011;4274;52.012;8.448;2024-01-15T07:46:29;44.63;;;6.70;;
8474;SDS011;4274;52.012;8.448;2024-01-15T07:48:55;41.90;;;6.87;;
8474;SDS011;4274;52.012;8.448;2024-01-15T07:51:22;42.60;;;6.37;;
8474;SDS011;4274;52.012;8.448;2024-01-15T07:53:49;40.20;;;6.33;;
8474;SDS011;4274;52.012;8.448;2024-01-15T07:56:14;39.33;;;6.33;;
8474;SDS011;4274;52.012;8.448;2024-01-15T07:58:40;44.13;;;6.47;;
8474;SDS011;4274;52.012;8.448;2024-01-15T08:01:06;47.03;;;6.13;;
8474;SDS011;4274;52.012;8.448;2024-01-15T08:03:32;45.60;;;6.30;;
8474;SDS011;4274;52.012;8.448;2024-01-15T08:05:58;43.70;;;6.13;;
8474;SDS011;4274;52.012;8.448;2024-01-15T08:08:24;42.27;;;6.30;;
8474;SDS011;4274;52.012;8.448;2024-01-15T08:10:51;42.00;;;6.50;;
8474;SDS011;4274;52.012;8.448;2024-01-15T08:13:19;44.50;;;5.40;;
8474;SDS011;4274;52.012;8.448;2024-01-15T08:15:45;47.00;;;7.17;;
8474;SDS011;4274;52.012;8.448;2024-01-15T08:18:11;41.70;;;7.73;;
8474;SDS011;4274;52.012;8.448;2024-01-15T08:20:37;43.73;;;6.57;;
8474;SDS011;4274;52.012;8.448;2024-01-15T08:23:03;44.33;;;6.60;;
8474;SDS011;4274;52.012;8.448;2024-01-15T08:25:29;40.90;;;6.60;;
8474;SDS011;4274;52.012;8.448;2024-01-15T08:27:56;40.40;;;6.47;;
8474;SDS011;4274;52.012;8.448;2024-01-15T08:30:22;39.40;;;6.30;;
8474;SDS011;4274;52.012;8.448;2024-01-15T08:32:52;39.17;;;6.00;;
8474;SDS011;4274;52.012;8.448;2024-01-15T08:35:20;41.20;;;7.07;;
8474;SDS011;4274;52.012;8.448;2024-01-15T08:37:50;38.57;;;5.63;;
8474;SDS011;4274;52.012;8.448;2024-01-15T08:40:17;44.40;;;5.90;;
8474;SDS011;4274;52.012;8.448;2024-01-15T08:42:42;45.70;;;6.27;;
8474;SDS011;4274;52.012;8.448;2024-01-15T08:45:08;41.23;;;7.30;;
8474;SDS011;4274;52.012;8.448;2024-01-15T08:47:34;40.17;;;6.10;;
8474;SDS011;4274;52.012;8.448;2024-01-15T08:50:00;40.77;;;6.87;;
8474;SDS011;4274;52.012;8.448;2024-01-15T08:52:26;43.53;;;5.93;;
8474;SDS011;4274;52.012;8.448;2024-01-15T08:54:52;39.57;;;6.27;;
8474;SDS011;4274;52.012;8.448;2024-01-15T08:57:18;43.10;;;8.33;;
8474;SDS011;4274;52.012;8.448;2024-01-15T08:59:43;44.73;;;6.60;;
8474;SDS011;4274;52.012;8.448;2024-01-15T09:02:10;41.70;;;6.50;;
8474;SDS011;4274;52.012;8.448;2024-01-15T09:04:35;44.20;;;6.90;;
8474;SDS011;4274;52.012;8.448;2024-01-15T09:07:01;41.17;;;6.20;;
8474;SDS011;4274;52.012;8.448;2024-01-15T09:09:27;43.27;;;6.70;;
8474;SDS011;4274;52.012;8.448;2024-01-15T09:11:52;44.50;;;6.40;;
8474;SDS011;4274;52.012;8.448;2024-01-15T09:14:18;47.13;;;7.03;;
8474;SDS011;4274;52.012;8.448;2024-01-15T09:16:44;42.57;;;7.40;;
8474;SDS011;4274;52.012;8.448;2024-01-15T09:19:10;39.70;;;6.23;;
8474;SDS011;4274;52.012;8.448;2024-01-15T09:21:37;40.60;;;6.10;;
8474;SDS011;4274;52.012;8.448;2024-01-15T09:24:03;45.63;;;6.57;;
8474;SDS011;4274;52.012;8.448;2024-01-15T09:26:29;43.80;;;7.20;;
8474;SDS011;4274;52.012;8.448;2024-01-15T09:28:55;40.87;;;6.30;;
8474;SDS011;4274;52.012;8.448;2024-01-15T09:31:22;55.40;;;6.43;;
8474;SDS011;4274;52.012;8.448;2024-01-15T09:33:49;41.60;;;6.47;;
8474;SDS011;4274;52.012;8.448;2024-01-15T09:36:17;48.00;;;7.57;;
8474;SDS011;4274;52.012;8.448;2024-01-15T09:38:43;40.97;;;6.83;;
8474;SDS011;4274;52.012;8.448;2024-01-15T09:41:08;42.30;;;6.40;;
8474;SDS011;4274;52.012;8.448;2024-01-15T09:43:34;47.83;;;6.90;;
8474;SDS011;4274;52.012;8.448;2024-01-15T09:46:02;46.03;;;7.17;;
8474;SDS011;4274;52.012;8.448;2024-01-15T09:48:28;49.30;;;7.13;;
8474;SDS011;4274;52.012;8.448;2024-01-15T09:50:54;42.77;;;6.80;;
8474;SDS011;4274;52.012;8.448;2024-01-15T09:53:23;47.33;;;6.93;;
8474;SDS011;4274;52.012;8.448;2024-01-15T09:55:50;46.90;;;8.43;;
8474;SDS011;4274;52.012;8.448;2024-01-15T09:58:18;44.70;;;7.00;;
8474;SDS011;4274;52.012;8.448;2024-01-15T10:00:44;43.93;;;7.03;;
8474;SDS011;4274;52.012;8.448;2024-01-15T10:03:12;41.83;;;5.87;;
8474;SDS011;4274;52.012;8.448;2024-01-15T10:05:38;46.43;;;5.87;;
8474;SDS011;4274;52.012;8.448;2024-01-15T10:08:04;47.10;;;7.37;;
8474;SDS011;4274;52.012;8.448;2024-01-15T10:10:31;44.23;;;6.10;;
8474;SDS011;4274;52.012;8.448;2024-01-15T10:12:56;45.70;;;5.70;;
8474;SDS011;4274;52.012;8.448;2024-01-15T10:15:27;44.73;;;5.83;;
8474;SDS011;4274;52.012;8.448;2024-01-15T10:17:52;43.90;;;5.70;;
8474;SDS011;4274;52.012;8.448;2024-01-15T10:20:18;42.00;;;5.47;;
8474;SDS011;4274;52.012;8.448;2024-01-15T10:22:47;45.22;;;5.32;;
8474;SDS011;4274;52.012;8.448;2024-01-15T10:25:13;50.20;;;5.93;;
8474;SDS011;4274;52.012;8.448;2024-01-15T10:27:39;38.93;;;5.80;;
8474;SDS011;4274;52.012;8.448;2024-01-15T10:30:06;41.40;;;5.60;;
8474;SDS011;4274;52.012;8.448;2024-01-15T10:32:33;43.23;;;5.20;;
8474;SDS011;4274;52.012;8.448;2024-01-15T10:34:59;46.03;;;5.00;;
8474;SDS011;4274;52.012;8.448;2024-01-15T10:37:24;43.40;;;4.90;;
8474;SDS011;4274;52.012;8.448;2024-01-15T10:39:50;42.00;;;4.87;;
8474;SDS011;4274;52.012;8.448;2024-01-15T10:42:16;39.50;;;5.30;;
8474;SDS011;4274;52.012;8.448;2024-01-15T10:44:43;40.83;;;5.47;;
8474;SDS011;4274;52.012;8.448;2024-01-15T10:47:11;48.07;;;4.67;;
8474;SDS011;4274;52.012;8.448;2024-01-15T10:49:38;41.90;;;5.07;;
8474;SDS011;4274;52.012;8.448;2024-01-15T10:52:04;37.50;;;4.27;;
8474;SDS011;4274;52.012;8.448;2024-01-15T10:54:30;37.83;;;4.53;;
8474;SDS011;4274;52.012;8.448;2024-01-15T10:56:57;39.60;;;4.50;;
8474;SDS011;4274;52.012;8.448;2024-01-15T10:59:23;38.37;;;4.80;;
8474;SDS011;4274;52.012;8.448;2024-01-15T11:01:51;37.70;;;4.73;;
8474;SDS011;4274;52.012;8.448;2024-01-15T11:04:21;39.43;;;4.70;;
8474;SDS011;4274;52.012;8.448;2024-01-15T11:06:49;39.20;;;4.50;;
8474;SDS011;4274;52.012;8.448;2024-01-15T11:09:17;41.67;;;4.40;;
8474;SDS011;4274;52.012;8.448;2024-01-15T11:11:44;41.63;;;4.60;;
8474;SDS011;4274;52.012;8.448;2024-01-15T11:14:33;39.43;;;4.10;;
8474;SDS011;4274;52.012;8.448;2024-01-15T11:17:08;41.53;;;4.60;;
8474;SDS011;4274;52.012;8.448;2024-01-15T11:19:38;43.83;;;4.33;;
8474;SDS011;4274;52.012;8.448;2024-01-15T11:22:08;39.23;;;4.30;;
8474;SDS011;4274;52.012;8.448;2024-01-15T11:24:37;38.67;;;4.57;;
8474;SDS011;4274;52.012;8.448;2024-01-15T11:27:04;42.50;;;4.50;;
8474;SDS011;4274;52.012;8.448;2024-01-15T11:29:32;39.70;;;4.30;;
8474;SDS011;4274;52.012;8.448;2024-01-15T11:32:08;46.80;;;4.90;;
8474;SDS011;4274;52.012;8.448;2024-01-15T11:34:53;40.00;;;4.73;;
8474;SDS011;4274;52.012;8.448;2024-01-15T11:37:24;40.23;;;4.20;;
8474;SDS011;4274;52.012;8.448;2024-01-15T11:39:51;41.03;;;4.80;;
8474;SDS011;4274;52.012;8.448;2024-01-15T11:42:21;41.70;;;4.30;;
8474;SDS011;4274;52.012;8.448;2024-01-15T11:44:47;37.57;;;4.90;;
8474;SDS011;4274;52.012;8.448;2024-01-15T11:47:14;40.30;;;5.10;;
8474;SDS011;4274;52.012;8.448;2024-01-15T11:52:17;38.73;;;4.70;;
8474;SDS011;4274;52.012;8.448;2024-01-15T11:54:47;37.30;;;4.13;;
8474;SDS011;4274;52.012;8.448;2024-01-15T11:57:46;40.93;;;5.57;;
8474;SDS011;4274;52.012;8.448;2024-01-15T12:00:13;43.60;;;4.93;;
8474;SDS011;4274;52.012;8.448;2024-01-15T12:02:41;39.37;;;4.87;;
8474;SDS011;4274;52.012;8.448;2024-01-15T12:05:11;40.33;;;4.43;;
8474;SDS011;4274;52.012;8.448;2024-01-15T12:07:38;45.13;;;4.97;;
8474;SDS011;4274;52.012;8.448;2024-01-15T12:10:07;40.30;;;4.47;;
8474;SDS011;4274;52.012;8.448;2024-01-15T12:15:28;39.60;;;3.90;;
8474;SDS011;4274;52.012;8.448;2024-01-15T12:17:55;38.67;;;3.93;;
8474;SDS011;4274;52.012;8.448;2024-01-15T12:20:24;36.37;;;3.77;;
8474;SDS011;4274;52.012;8.448;2024-01-15T12:22:54;42.50;;;4.50;;
8474;SDS011;4274;52.012;8.448;2024-01-15T12:25:22;47.67;;;5.40;;
8474;SDS011;4274;52.012;8.448;2024-01-15T12:27:48;39.53;;;4.50;;
8474;SDS011;4274;52.012;8.448;2024-01-15T12:30:15;45.20;;;4.00;;
8474;SDS011;4274;52.012;8.448;2024-01-15T12:32:41;40.30;;;4.20;;
8474;SDS011;4274;52.012;8.448;2024-01-15T12:35:07;41.10;;;4.43;;
8474;SDS011;4274;52.012;8.448;2024-01-15T12:37:35;38.93;;;3.97;;
8474;SDS011;4274;52.012;8.448;2024-01-15T12:40:02;38.07;;;4.10;;
8474;SDS011;4274;52.012;8.448;2024-01-15T12:42:29;42.03;;;4.40;;
8474;SDS011;4274;52.012;8.448;2024-01-15T12:44:58;40.27;;;4.77;;
8474;SDS011;4274;52.012;8.448;2024-01-15T12:47:24;39.03;;;4.53;;
8474;SDS011;4274;52.012;8.448;2024-01-15T12:49:51;41.83;;;4.13;;
8474;SDS011;4274;52.012;8.448;2024-01-15T12:52:20;37.60;;;4.00;;
8474;SDS011;4274;52.012;8.448;2024-01-15T12:54:47;39.67;;;3.70;;
8474;SDS011;4274;52.012;8.448;2024-01-15T12:57:16;41.40;;;4.27;;
8474;SDS011;4274;52.012;8.448;2024-01-15T12:59:44;43.03;;;4.03;;
8474;SDS011;4274;52.012;8.448;2024-01-15T13:02:13;38.07;;;3.90;;
8474;SDS011;4274;52.012;8.448;2024-01-15T13:04:39;37.40;;;3.33;;
8474;SDS011;4274;52.012;8.448;2024-01-15T13:07:05;44.10;;;3.83;;
8474;SDS011;4274;52.012;8.448;2024-01-15T13:09:32;37.63;;;3.70;;
8474;SDS011;4274;52.012;8.448;2024-01-15T13:11:58;39.83;;;4.27;;
8474;SDS011;4274;52.012;8.448;2024-01-15T13:14:24;37.57;;;3.30;;
8474;SDS011;4274;52.012;8.448;2024-01-15T13:16:49;38.20;;;3.53;;
8474;SDS011;4274;52.012;8.448;2024-01-15T13:19:15;38.43;;;3.70;;
8474;SDS011;4274;52.012;8.448;2024-01-15T13:21:41;39.40;;;4.50;;
8474;SDS011;4274;52.012;8.448;2024-01-15T13:24:07;40.93;;;4.00;;
8474;SDS011;4274;52.012;8.448;2024-01-15T13:26:33;40.93;;;3.83;;
8474;SDS011;4274;52.012;8.448;2024-01-15T13:29:04;38.50;;;3.83;;
8474;SDS011;4274;52.012;8.448;2024-01-15T13:31:31;41.17;;;4.87;;
8474;SDS011;4274;52.012;8.448;2024-01-15T13:33:59;42.53;;;3.73;;
8474;SDS011;4274;52.012;8.448;2024-01-15T13:36:25;42.27;;;4.13;;
8474;SDS011;4274;52.012;8.448;2024-01-15T13:38:52;42.57;;;4.73;;
8474;SDS011;4274;52.012;8.448;2024-01-15T13:41:18;44.47;;;5.93;;
8474;SDS011;4274;52.012;8.448;2024-01-15T13:43:47;36.53;;;3.83;;
8474;SDS011;4274;52.012;8.448;2024-01-15T13:46:14;36.60;;;3.37;;
8474;SDS011;4274;52.012;8.448;2024-01-15T13:48:39;51.13;;;3.97;;
8474;SDS011;4274;52.012;8.448;2024-01-15T13:51:05;46.33;;;3.87;;
8474;SDS011;4274;52.012;8.448;2024-01-15T13:53:31;37.27;;;3.63;;
8474;SDS011;4274;52.012;8.448;2024-01-15T13:55:56;37.77;;;3.70;;
8474;SDS011;4274;52.012;8.448;2024-01-15T13:58:22;40.07;;;3.93;;
8474;SDS011;4274;52.012;8.448;2024-01-15T14:00:48;40.13;;;3.80;;
8474;SDS011;4274;52.012;8.448;2024-01-15T14:03:14;38.60;;;3.77;;
8474;SDS011;4274;52.012;8.448;2024-01-15T14:05:40;39.27;;;4.67;;
8474;SDS011;4274;52.012;8.448;2024-01-15T14:08:05;38.63;;;3.63;;
8474;SDS011;4274;52.012;8.448;2024-01-15T14:10:31;36.57;;;3.40;;
8474;SDS011;4274;52.012;8.448;2024-01-15T14:12:57;42.40;;;4.80;;
8474;SDS011;4274;52.012;8.448;2024-01-15T14:15:22;39.90;;;3.03;;
8474;SDS011;4274;52.012;8.448;2024-01-15T14:17:48;39.00;;;3.97;;
8474;SDS011;4274;52.012;8.448;2024-01-15T14:20:13;38.20;;;3.73;;
8474;SDS011;4274;52.012;8.448;2024-01-15T14:22:39;38.30;;;3.70;;
8474;SDS011;4274;52.012;8.448;2024-01-15T14:25:04;41.00;;;4.10;;
8474;SDS011;4274;52.012;8.448;2024-01-15T14:27:30;45.70;;;3.60;;
8474;SDS011;4274;52.012;8.448;2024-01-15T14:29:57;36.20;;;3.93;;
8474;SDS011;4274;52.012;8.448;2024-01-15T14:32:23;36.07;;;3.60;;
8474;SDS011;4274;52.012;8.448;2024-01-15T14:34:48;37.30;;;4.93;;
8474;SDS011;4274;52.012;8.448;2024-01-15T14:37:14;37.90;;;3.77;;
8474;SDS011;4274;52.012;8.448;2024-01-15T14:39:39;39.00;;;3.40;;
8474;SDS011;4274;52.012;8.448;2024-01-15T14:42:05;40.10;;;4.27;;
8474;SDS011;4274;52.012;8.448;2024-01-15T14:44:31;37.80;;;3.93;;
8474;SDS011;4274;52.012;8.448;2024-01-15T14:46:58;38.87;;;3.83;;
8474;SDS011;4274;52.012;8.448;2024-01-15T14:49:24;38.03;;;3.87;;
8474;SDS011;4274;52.012;8.448;2024-01-15T14:51:50;38.03;;;4.17;;
8474;SDS011;4274;52.012;8.448;2024-01-15T14:54:15;39.67;;;3.30;;
8474;SDS011;4274;52.012;8.448;2024-01-15T14:56:41;35.20;;;3.30;;
8474;SDS011;4274;52.012;8.448;2024-01-15T14:59:07;36.93;;;3.87;;
8474;SDS011;4274;52.012;8.448;2024-01-15T15:01:33;34.87;;;2.70;;
8474;SDS011;4274;52.012;8.448;2024-01-15T15:03:59;38.60;;;3.23;;